sensor_id;sensor_type;location;lat;lon;timestamp;temperature;humidity
48162;DHT22;33950;48.154;16.316;2023-03-21T00:00:05;13.10;88.30
48162;DHT22;33950;48.154;16.316;2023-03-21T00:02:52;13.20;88.00
48162;DHT22;33950;48.154;16.316;2023-03-21T00:05:41;13.30;87.80
48162;DHT22;33950;48.154;16.316;2023-03-21T00:08:30;13.40;88.30
48162;DHT22;33950;48.154;16.316;2023-03-21T00:11:16;13.40;87.50
48162;DHT22;33950;48.154;16.316;2023-03-21T00:14:03;13.40;87.30
48162;DHT22;33950;48.154;16.316;2023-03-21T00:16:53;13.50;87.20
48162;DHT22;33950;48.154;16.316;2023-03-21T00:19:39;13.60;87.00
48162;DHT22;33950;48.154;16.316;2023-03-21T00:22:26;13.70;86.90
48162;DHT22;33950;48.154;16.316;2023-03-21T00:25:12;13.70;86.90
48162;DHT22;33950;48.154;16.316;2023-03-21T00:27:58;13.70;86.90
48162;DHT22;33950;48.154;16.316;2023-03-21T00:30:46;13.80;86.70
48162;DHT22;33950;48.154;16.316;2023-03-21T00:33:32;13.90;86.60
48162;DHT22;33950;48.154;16.316;2023-03-21T00:36:19;13.90;86.40
48162;DHT22;33950;48.154;16.316;2023-03-21T00:39:06;14.00;86.30
48162;DHT22;33950;48.154;16.316;2023-03-21T00:41:52;14.00;86.20
48162;DHT22;33950;48.154;16.316;2023-03-21T00:44:38;14.00;86.10
48162;DHT22;33950;48.154;16.316;2023-03-21T00:47:26;14.00;86.00
48162;DHT22;33950;48.154;16.316;2023-03-21T00:50:12;13.90;85.80
48162;DHT22;33950;48.154;16.316;2023-03-21T00:52:59;13.70;86.00
48162;DHT22;33950;48.154;16.316;2023-03-21T00:55:45;13.60;86.40
48162;DHT22;33950;48.154;16.316;2023-03-21T00:58:31;13.30;86.60
48162;DHT22;33950;48.154;16.316;2023-03-21T01:01:17;13.20;86.90
48162;DHT22;33950;48.154;16.316;2023-03-21T01:04:05;13.10;87.10
48162;DHT22;33950;48.154;16.316;2023-03-21T01:06:53;13.00;87.20
48162;DHT22;33950;48.154;16.316;2023-03-21T01:09:39;13.10;87.40
48162;DHT22;33950;48.154;16.316;2023-03-21T01:12:25;13.10;87.30
48162;DHT22;33950;48.154;16.316;2023-03-21T01:15:12;13.10;87.10
48162;DHT22;33950;48.154;16.316;2023-03-21T01:17:58;13.20;86.80
48162;DHT22;33950;48.154;16.316;2023-03-21T01:20:46;13.10;86.90
48162;DHT22;33950;48.154;16.316;2023-03-21T01:23:32;13.10;87.10
48162;DHT22;33950;48.154;16.316;2023-03-21T01:26:18;13.10;87.20
48162;DHT22;33950;48.154;16.316;2023-03-21T01:29:05;13.00;87.40
48162;DHT22;33950;48.154;16.316;2023-03-21T01:31:51;13.00;87.30
48162;DHT22;33950;48.154;16.316;2023-03-21T01:34:37;13.10;87.20
48162;DHT22;33950;48.154;16.316;2023-03-21T01:37:24;13.10;87.00
48162;DHT22;33950;48.154;16.316;2023-03-21T01:40:15;13.10;87.10
48162;DHT22;33950;48.154;16.316;2023-03-21T01:43:02;13.00;87.20
48162;DHT22;33950;48.154;16.316;2023-03-21T01:49:14;13.00;87.30
48162;DHT22;33950;48.154;16.316;2023-03-21T01:52:03;13.00;86.90
48162;DHT22;33950;48.154;16.316;2023-03-21T01:54:52;12.90;86.90
48162;DHT22;33950;48.154;16.316;2023-03-21T01:57:43;12.90;87.00
48162;DHT22;33950;48.154;16.316;2023-03-21T02:00:31;12.80;87.00
48162;DHT22;33950;48.154;16.316;2023-03-21T02:03:18;12.80;87.00
48162;DHT22;33950;48.154;16.316;2023-03-21T02:06:08;12.70;86.90
48162;DHT22;33950;48.154;16.316;2023-03-21T02:08:58;12.70;86.90
48162;DHT22;33950;48.154;16.316;2023-03-21T02:11:47;12.70;86.80
48162;DHT22;33950;48.154;16.316;2023-03-21T02:14:35;12.80;87.30
48162;DHT22;33950;48.154;16.316;2023-03-21T02:17:27;12.80;86.80
48162;DHT22;33950;48.154;16.316;2023-03-21T02:20:46;12.80;86.70
48162;DHT22;33950;48.154;16.316;2023-03-21T02:27:12;12.80;86.40
48162;DHT22;33950;48.154;16.316;2023-03-21T02:30:37;12.80;86.40
48162;DHT22;33950;48.154;16.316;2023-03-21T02:36:54;12.80;86.50
48162;DHT22;33950;48.154;16.316;2023-03-21T02:39:52;12.80;86.40
48162;DHT22;33950;48.154;16.316;2023-03-21T02:42:50;12.80;86.40
48162;DHT22;33950;48.154;16.316;2023-03-21T02:45:41;12.80;86.20
48162;DHT22;33950;48.154;16.316;2023-03-21T02:48:33;12.80;86.40
48162;DHT22;33950;48.154;16.316;2023-03-21T02:51:22;12.80;86.40
48162;DHT22;33950;48.154;16.316;2023-03-21T02:54:12;12.90;86.30
48162;DHT22;33950;48.154;16.316;2023-03-21T02:56:59;12.90;86.20
48162;DHT22;33950;48.154;16.316;2023-03-21T02:59:48;12.90;86.20
48162;DHT22;33950;48.154;16.316;2023-03-21T03:02:35;12.90;86.30
48162;DHT22;33950;48.154;16.316;2023-03-21T03:05:24;12.80;86.30
48162;DHT22;33950;48.154;16.316;2023-03-21T03:08:19;12.80;86.40
48162;DHT22;33950;48.154;16.316;2023-03-21T03:11:21;12.70;86.50
48162;DHT22;33950;48.154;16.316;2023-03-21T03:14:20;12.60;86.70
48162;DHT22;33950;48.154;16.316;2023-03-21T03:17:16;12.60;86.70
48162;DHT22;33950;48.154;16.316;2023-03-21T03:20:17;12.50;86.80
48162;DHT22;33950;48.154;16.316;2023-03-21T03:23:12;12.50;86.90
48162;DHT22;33950;48.154;16.316;2023-03-21T03:26:05;12.50;86.90
48162;DHT22;33950;48.154;16.316;2023-03-21T03:28:57;12.60;86.90
48162;DHT22;33950;48.154;16.316;2023-03-21T03:31:48;12.70;86.60
48162;DHT22;33950;48.154;16.316;2023-03-21T03:34:38;12.70;86.50
48162;DHT22;33950;48.154;16.316;2023-03-21T03:37:28;12.70;86.50
48162;DHT22;33950;48.154;16.316;2023-03-21T03:40:19;12.60;87.00
48162;DHT22;33950;48.154;16.316;2023-03-21T03:43:11;12.60;87.40
48162;DHT22;33950;48.154;16.316;2023-03-21T03:46:05;12.60;87.40
48162;DHT22;33950;48.154;16.316;2023-03-21T03:48:59;12.50;87.20
48162;DHT22;33950;48.154;16.316;2023-03-21T03:51:51;12.40;87.30
48162;DHT22;33950;48.154;16.316;2023-03-21T03:54:41;12.40;87.30
48162;DHT22;33950;48.154;16.316;2023-03-21T03:57:28;12.30;87.60
48162;DHT22;33950;48.154;16.316;2023-03-21T04:00:16;12.20;87.70
48162;DHT22;33950;48.154;16.316;2023-03-21T04:03:03;12.30;87.90
48162;DHT22;33950;48.154;16.316;2023-03-21T04:05:51;12.20;88.00
48162;DHT22;33950;48.154;16.316;2023-03-21T04:08:38;12.20;87.90
48162;DHT22;33950;48.154;16.316;2023-03-21T04:11:24;12.20;87.80
48162;DHT22;33950;48.154;16.316;2023-03-21T04:14:11;12.20;87.80
48162;DHT22;33950;48.154;16.316;2023-03-21T04:16:57;12.20;87.70
48162;DHT22;33950;48.154;16.316;2023-03-21T04:19:44;12.20;87.60
48162;DHT22;33950;48.154;16.316;2023-03-21T04:22:31;12.20;87.70
48162;DHT22;33950;48.154;16.316;2023-03-21T04:25:18;12.20;87.60
48162;DHT22;33950;48.154;16.316;2023-03-21T04:28:04;12.30;87.50
48162;DHT22;33950;48.154;16.316;2023-03-21T04:30:50;12.30;87.50
48162;DHT22;33950;48.154;16.316;2023-03-21T04:33:36;12.20;87.70
48162;DHT22;33950;48.154;16.316;2023-03-21T04:36:24;12.10;87.80
48162;DHT22;33950;48.154;16.316;2023-03-21T04:39:13;12.10;87.90
48162;DHT22;33950;48.154;16.316;2023-03-21T04:42:00;12.10;88.00
48162;DHT22;33950;48.154;16.316;2023-03-21T04:44:46;12.10;87.90
48162;DHT22;33950;48.154;16.316;2023-03-21T04:47:33;12.20;87.80
48162;DHT22;33950;48.154;16.316;2023-03-21T04:50:19;12.20;87.60
48162;DHT22;33950;48.154;16.316;2023-03-21T04:53:06;12.20;87.50
48162;DHT22;33950;48.154;16.316;2023-03-21T04:55:53;12.20;87.60
48162;DHT22;33950;48.154;16.316;2023-03-21T04:58:39;12.20;87.60
48162;DHT22;33950;48.154;16.316;2023-03-21T05:01:28;12.20;87.70
48162;DHT22;33950;48.154;16.316;2023-03-21T05:04:18;12.10;87.80
48162;DHT22;33950;48.154;16.316;2023-03-21T05:07:04;12.10;87.90
48162;DHT22;33950;48.154;16.316;2023-03-21T05:09:52;12.00;88.10
48162;DHT22;33950;48.154;16.316;2023-03-21T05:12:38;11.90;88.40
48162;DHT22;33950;48.154;16.316;2023-03-21T05:15:24;11.70;88.90
48162;DHT22;33950;48.154;16.316;2023-03-21T05:18:10;11.70;89.10
48162;DHT22;33950;48.154;16.316;2023-03-21T05:20:56;11.60;89.30
48162;DHT22;33950;48.154;16.316;2023-03-21T05:23:42;11.60;89.50
48162;DHT22;33950;48.154;16.316;2023-03-21T05:26:30;11.70;89.20
48162;DHT22;33950;48.154;16.316;2023-03-21T05:29:17;11.80;89.00
48162;DHT22;33950;48.154;16.316;2023-03-21T05:32:04;11.80;88.80
48162;DHT22;33950;48.154;16.316;2023-03-21T05:34:50;11.80;89.00
48162;DHT22;33950;48.154;16.316;2023-03-21T05:37:36;11.70;89.20
48162;DHT22;33950;48.154;16.316;2023-03-21T05:40:23;11.70;89.20
48162;DHT22;33950;48.154;16.316;2023-03-21T05:43:10;11.70;89.20
48162;DHT22;33950;48.154;16.316;2023-03-21T05:45:56;11.70;89.40
48162;DHT22;33950;48.154;16.316;2023-03-21T05:48:42;11.70;89.60
48162;DHT22;33950;48.154;16.316;2023-03-21T05:51:29;11.70;89.60
48162;DHT22;33950;48.154;16.316;2023-03-21T05:54:15;11.70;89.50
48162;DHT22;33950;48.154;16.316;2023-03-21T05:57:01;11.80;89.40
48162;DHT22;33950;48.154;16.316;2023-03-21T05:59:49;11.80;89.60
48162;DHT22;33950;48.154;16.316;2023-03-21T06:02:35;11.80;89.70
48162;DHT22;33950;48.154;16.316;2023-03-21T06:05:21;11.80;89.70
48162;DHT22;33950;48.154;16.316;2023-03-21T06:08:07;11.80;89.70
48162;DHT22;33950;48.154;16.316;2023-03-21T06:10:53;11.80;89.90
48162;DHT22;33950;48.154;16.316;2023-03-21T06:13:40;11.80;89.80
48162;DHT22;33950;48.154;16.316;2023-03-21T06:16:27;11.90;89.60
48162;DHT22;33950;48.154;16.316;2023-03-21T06:19:14;11.90;89.60
48162;DHT22;33950;48.154;16.316;2023-03-21T06:22:00;11.90;89.60
48162;DHT22;33950;48.154;16.316;2023-03-21T06:24:48;11.90;89.70
48162;DHT22;33950;48.154;16.316;2023-03-21T06:27:35;11.90;89.50
48162;DHT22;33950;48.154;16.316;2023-03-21T06:30:21;12.00;89.30
48162;DHT22;33950;48.154;16.316;2023-03-21T06:33:09;12.00;89.10
48162;DHT22;33950;48.154;16.316;2023-03-21T06:35:56;12.00;89.60
48162;DHT22;33950;48.154;16.316;2023-03-21T06:38:43;12.00;88.90
48162;DHT22;33950;48.154;16.316;2023-03-21T06:41:29;11.90;89.00
48162;DHT22;33950;48.154;16.316;2023-03-21T06:44:15;11.90;88.70
48162;DHT22;33950;48.154;16.316;2023-03-21T06:47:01;12.00;88.70
48162;DHT22;33950;48.154;16.316;2023-03-21T06:49:48;12.10;88.40
48162;DHT22;33950;48.154;16.316;2023-03-21T06:52:34;12.10;88.10
48162;DHT22;33950;48.154;16.316;2023-03-21T06:55:20;12.00;87.90
48162;DHT22;33950;48.154;16.316;2023-03-21T06:58:11;12.10;87.60
48162;DHT22;33950;48.154;16.316;2023-03-21T07:00:57;12.10;87.20
48162;DHT22;33950;48.154;16.316;2023-03-21T07:03:44;12.30;87.00
48162;DHT22;33950;48.154;16.316;2023-03-21T07:06:32;12.50;87.00
48162;DHT22;33950;48.154;16.316;2023-03-21T07:09:19;12.60;85.80
48162;DHT22;33950;48.154;16.316;2023-03-21T07:12:09;12.60;86.00
48162;DHT22;33950;48.154;16.316;2023-03-21T07:14:55;12.50;85.50
48162;DHT22;33950;48.154;16.316;2023-03-21T07:17:41;12.40;86.00
48162;DHT22;33950;48.154;16.316;2023-03-21T07:20:28;12.40;86.20
48162;DHT22;33950;48.154;16.316;2023-03-21T07:23:15;12.50;86.30
48162;DHT22;33950;48.154;16.316;2023-03-21T07:26:01;12.60;86.30
48162;DHT22;33950;48.154;16.316;2023-03-21T07:28:47;12.80;85.10
48162;DHT22;33950;48.154;16.316;2023-03-21T07:31:34;13.00;85.60
48162;DHT22;33950;48.154;16.316;2023-03-21T07:34:20;13.00;84.30
48162;DHT22;33950;48.154;16.316;2023-03-21T07:37:06;13.00;84.20
48162;DHT22;33950;48.154;16.316;2023-03-21T07:39:54;13.00;84.10
48162;DHT22;33950;48.154;16.316;2023-03-21T07:42:41;13.10;84.70
48162;DHT22;33950;48.154;16.316;2023-03-21T07:45:27;13.30;84.20
48162;DHT22;33950;48.154;16.316;2023-03-21T07:48:14;13.30;83.20
48162;DHT22;33950;48.154;16.316;2023-03-21T07:51:02;13.30;83.00
48162;DHT22;33950;48.154;16.316;2023-03-21T07:53:48;13.30;82.70
48162;DHT22;33950;48.154;16.316;2023-03-21T07:56:35;13.40;82.80
48162;DHT22;33950;48.154;16.316;2023-03-21T07:59:22;13.40;82.20
48162;DHT22;33950;48.154;16.316;2023-03-21T08:02:09;13.40;82.20
48162;DHT22;33950;48.154;16.316;2023-03-21T08:04:55;13.50;81.70
48162;DHT22;33950;48.154;16.316;2023-03-21T08:07:42;13.50;81.90
48162;DHT22;33950;48.154;16.316;2023-03-21T08:10:28;13.50;81.80
48162;DHT22;33950;48.154;16.316;2023-03-21T08:13:15;13.50;82.10
48162;DHT22;33950;48.154;16.316;2023-03-21T08:16:02;13.60;82.00
48162;DHT22;33950;48.154;16.316;2023-03-21T08:18:48;13.60;81.90
48162;DHT22;33950;48.154;16.316;2023-03-21T08:21:35;13.70;81.90
48162;DHT22;33950;48.154;16.316;2023-03-21T08:24:22;13.70;81.80
48162;DHT22;33950;48.154;16.316;2023-03-21T08:27:08;13.80;82.10
48162;DHT22;33950;48.154;16.316;2023-03-21T08:29:56;13.90;82.10
48162;DHT22;33950;48.154;16.316;2023-03-21T08:32:42;14.00;83.20
48162;DHT22;33950;48.154;16.316;2023-03-21T08:35:29;14.30;82.50
48162;DHT22;33950;48.154;16.316;2023-03-21T08:38:16;14.50;81.90
48162;DHT22;33950;48.154;16.316;2023-03-21T08:41:02;14.60;81.00
48162;DHT22;33950;48.154;16.316;2023-03-21T08:43:48;14.70;81.00
48162;DHT22;33950;48.154;16.316;2023-03-21T08:46:36;14.60;81.30
48162;DHT22;33950;48.154;16.316;2023-03-21T08:49:22;14.50;81.10
48162;DHT22;33950;48.154;16.316;2023-03-21T08:52:08;14.40;81.10
48162;DHT22;33950;48.154;16.316;2023-03-21T08:54:54;14.50;81.50
48162;DHT22;33950;48.154;16.316;2023-03-21T08:57:40;14.50;81.00
48162;DHT22;33950;48.154;16.316;2023-03-21T09:00:27;14.70;80.50
48162;DHT22;33950;48.154;16.316;2023-03-21T09:03:18;15.00;80.30
48162;DHT22;33950;48.154;16.316;2023-03-21T09:06:08;15.00;79.40
48162;DHT22;33950;48.154;16.316;2023-03-21T09:08:55;14.80;80.20
48162;DHT22;33950;48.154;16.316;2023-03-21T09:11:42;15.10;80.40
48162;DHT22;33950;48.154;16.316;2023-03-21T09:14:28;15.30;80.00
48162;DHT22;33950;48.154;16.316;2023-03-21T09:17:14;15.50;78.90
48162;DHT22;33950;48.154;16.316;2023-03-21T09:20:02;15.40;78.10
48162;DHT22;33950;48.154;16.316;2023-03-21T09:22:57;15.20;78.40
48162;DHT22;33950;48.154;16.316;2023-03-21T09:25:44;15.20;78.10
48162;DHT22;33950;48.154;16.316;2023-03-21T09:28:30;15.00;78.10
48162;DHT22;33950;48.154;16.316;2023-03-21T09:31:17;14.80;77.90
48162;DHT22;33950;48.154;16.316;2023-03-21T09:34:07;14.80;78.20
48162;DHT22;33950;48.154;16.316;2023-03-21T09:36:54;14.70;78.80
48162;DHT22;33950;48.154;16.316;2023-03-21T09:39:42;14.80;79.10
48162;DHT22;33950;48.154;16.316;2023-03-21T09:42:36;15.00;79.20
48162;DHT22;33950;48.154;16.316;2023-03-21T09:45:33;15.20;78.80
48162;DHT22;33950;48.154;16.316;2023-03-21T09:48:31;15.10;77.90
48162;DHT22;33950;48.154;16.316;2023-03-21T09:51:20;15.00;78.70
48162;DHT22;33950;48.154;16.316;2023-03-21T09:54:15;14.90;78.50
48162;DHT22;33950;48.154;16.316;2023-03-21T09:57:10;14.90;78.40
48162;DHT22;33950;48.154;16.316;2023-03-21T10:00:03;15.00;78.80
48162;DHT22;33950;48.154;16.316;2023-03-21T10:02:56;15.20;78.70
48162;DHT22;33950;48.154;16.316;2023-03-21T10:05:48;15.20;77.90
48162;DHT22;33950;48.154;16.316;2023-03-21T10:08:37;15.20;78.10
48162;DHT22;33950;48.154;16.316;2023-03-21T10:11:28;15.30;77.60
48162;DHT22;33950;48.154;16.316;2023-03-21T10:14:19;15.30;77.70
48162;DHT22;33950;48.154;16.316;2023-03-21T10:17:18;15.30;77.50
48162;DHT22;33950;48.154;16.316;2023-03-21T10:20:11;15.50;77.00
48162;DHT22;33950;48.154;16.316;2023-03-21T10:23:02;15.60;75.80
48162;DHT22;33950;48.154;16.316;2023-03-21T10:25:50;15.60;75.90
48162;DHT22;33950;48.154;16.316;2023-03-21T10:28:41;15.70;76.20
48162;DHT22;33950;48.154;16.316;2023-03-21T10:31:29;15.80;76.50
48162;DHT22;33950;48.154;16.316;2023-03-21T10:34:19;15.90;75.70
48162;DHT22;33950;48.154;16.316;2023-03-21T10:37:12;15.80;75.80
48162;DHT22;33950;48.154;16.316;2023-03-21T10:39:58;15.90;76.00
48162;DHT22;33950;48.154;16.316;2023-03-21T10:42:45;15.90;76.10
48162;DHT22;33950;48.154;16.316;2023-03-21T10:45:33;16.00;75.90
48162;DHT22;33950;48.154;16.316;2023-03-21T10:48:24;15.90;76.00
48162;DHT22;33950;48.154;16.316;2023-03-21T10:51:16;16.50;76.70
48162;DHT22;33950;48.154;16.316;2023-03-21T10:54:06;17.40;73.60
48162;DHT22;33950;48.154;16.316;2023-03-21T10:56:56;17.20;72.90
48162;DHT22;33950;48.154;16.316;2023-03-21T10:59:45;16.80;73.10
48162;DHT22;33950;48.154;16.316;2023-03-21T11:02:36;16.50;74.00
48162;DHT22;33950;48.154;16.316;2023-03-21T11:05:25;16.40;74.10
48162;DHT22;33950;48.154;16.316;2023-03-21T11:08:14;16.40;74.60
48162;DHT22;33950;48.154;16.316;2023-03-21T11:11:04;16.50;74.90
48162;DHT22;33950;48.154;16.316;2023-03-21T11:13:57;16.60;74.90
48162;DHT22;33950;48.154;16.316;2023-03-21T11:16:43;16.90;74.00
48162;DHT22;33950;48.154;16.316;2023-03-21T11:19:32;17.10;74.00
48162;DHT22;33950;48.154;16.316;2023-03-21T11:22:22;17.80;73.70
48162;DHT22;33950;48.154;16.316;2023-03-21T11:25:14;17.90;73.40
48162;DHT22;33950;48.154;16.316;2023-03-21T11:28:08;18.50;72.20
48162;DHT22;33950;48.154;16.316;2023-03-21T11:30:55;19.20;71.70
48162;DHT22;33950;48.154;16.316;2023-03-21T11:33:49;19.50;70.60
48162;DHT22;33950;48.154;16.316;2023-03-21T11:36:37;19.80;69.60
48162;DHT22;33950;48.154;16.316;2023-03-21T11:39:30;20.10;69.40
48162;DHT22;33950;48.154;16.316;2023-03-21T11:42:28;20.30;69.00
48162;DHT22;33950;48.154;16.316;2023-03-21T11:45:16;20.00;67.50
48162;DHT22;33950;48.154;16.316;2023-03-21T11:48:10;19.80;68.10
48162;DHT22;33950;48.154;16.316;2023-03-21T11:51:01;19.90;67.30
48162;DHT22;33950;48.154;16.316;2023-03-21T11:53:55;20.00;67.30
48162;DHT22;33950;48.154;16.316;2023-03-21T11:56:44;19.70;66.00
48162;DHT22;33950;48.154;16.316;2023-03-21T11:59:36;19.40;66.40
48162;DHT22;33950;48.154;16.316;2023-03-21T12:02:44;19.40;66.80
48162;DHT22;33950;48.154;16.316;2023-03-21T12:05:35;19.50;67.30
48162;DHT22;33950;48.154;16.316;2023-03-21T12:08:32;19.70;67.10
48162;DHT22;33950;48.154;16.316;2023-03-21T12:11:28;19.90;66.80
48162;DHT22;33950;48.154;16.316;2023-03-21T12:14:21;20.30;65.60
48162;DHT22;33950;48.154;16.316;2023-03-21T12:17:18;20.20;65.00
48162;DHT22;33950;48.154;16.316;2023-03-21T12:20:20;20.10;65.80
48162;DHT22;33950;48.154;16.316;2023-03-21T12:23:34;20.10;65.70
48162;DHT22;33950;48.154;16.316;2023-03-21T12:26:25;20.00;64.60
48162;DHT22;33950;48.154;16.316;2023-03-21T12:29:31;19.80;65.20
48162;DHT22;33950;48.154;16.316;2023-03-21T12:32:28;19.80;65.10
48162;DHT22;33950;48.154;16.316;2023-03-21T12:35:38;19.40;65.80
48162;DHT22;33950;48.154;16.316;2023-03-21T12:38:38;19.00;66.90
48162;DHT22;33950;48.154;16.316;2023-03-21T12:41:32;19.00;66.70
48162;DHT22;33950;48.154;16.316;2023-03-21T12:44:22;19.40;66.00
48162;DHT22;33950;48.154;16.316;2023-03-21T12:47:14;19.30;66.00
48162;DHT22;33950;48.154;16.316;2023-03-21T12:50:04;19.40;65.90
48162;DHT22;33950;48.154;16.316;2023-03-21T12:52:55;19.50;65.20
48162;DHT22;33950;48.154;16.316;2023-03-21T12:55:42;18.80;66.20
48162;DHT22;33950;48.154;16.316;2023-03-21T12:58:31;18.70;66.40
48162;DHT22;33950;48.154;16.316;2023-03-21T13:01:20;18.80;66.60
48162;DHT22;33950;48.154;16.316;2023-03-21T13:04:20;19.00;66.50
48162;DHT22;33950;48.154;16.316;2023-03-21T13:07:14;19.70;66.80
48162;DHT22;33950;48.154;16.316;2023-03-21T13:10:12;20.20;65.50
48162;DHT22;33950;48.154;16.316;2023-03-21T13:13:07;20.10;65.80
48162;DHT22;33950;48.154;16.316;2023-03-21T13:16:13;19.90;64.50
48162;DHT22;33950;48.154;16.316;2023-03-21T13:19:10;19.90;65.50
48162;DHT22;33950;48.154;16.316;2023-03-21T13:22:05;20.10;65.10
48162;DHT22;33950;48.154;16.316;2023-03-21T13:24:57;20.20;64.80
48162;DHT22;33950;48.154;16.316;2023-03-21T13:27:49;19.70;65.30
48162;DHT22;33950;48.154;16.316;2023-03-21T13:30:36;19.10;66.20
48162;DHT22;33950;48.154;16.316;2023-03-21T13:33:28;18.80;65.30
48162;DHT22;33950;48.154;16.316;2023-03-21T13:36:17;18.70;66.00
48162;DHT22;33950;48.154;16.316;2023-03-21T13:39:16;18.50;66.20
48162;DHT22;33950;48.154;16.316;2023-03-21T13:42:04;18.20;65.80
48162;DHT22;33950;48.154;16.316;2023-03-21T13:44:54;18.10;66.70
48162;DHT22;33950;48.154;16.316;2023-03-21T13:47:50;18.00;66.40
48162;DHT22;33950;48.154;16.316;2023-03-21T13:51:01;17.90;66.80
48162;DHT22;33950;48.154;16.316;2023-03-21T13:53:58;17.70;67.30
48162;DHT22;33950;48.154;16.316;2023-03-21T13:56:50;17.80;67.60
48162;DHT22;33950;48.154;16.316;2023-03-21T13:59:41;17.90;67.50
48162;DHT22;33950;48.154;16.316;2023-03-21T14:02:29;18.10;67.30
48162;DHT22;33950;48.154;16.316;2023-03-21T14:05:19;18.10;67.00
48162;DHT22;33950;48.154;16.316;2023-03-21T14:08:09;18.20;67.00
48162;DHT22;33950;48.154;16.316;2023-03-21T14:11:04;18.30;66.50
48162;DHT22;33950;48.154;16.316;2023-03-21T14:13:52;18.40;67.30
48162;DHT22;33950;48.154;16.316;2023-03-21T14:16:40;18.50;67.40
48162;DHT22;33950;48.154;16.316;2023-03-21T14:19:30;18.60;67.50
48162;DHT22;33950;48.154;16.316;2023-03-21T14:22:17;18.60;67.40
48162;DHT22;33950;48.154;16.316;2023-03-21T14:25:07;18.60;67.40
48162;DHT22;33950;48.154;16.316;2023-03-21T14:27:56;18.40;67.90
48162;DHT22;33950;48.154;16.316;2023-03-21T14:30:44;18.20;68.20
48162;DHT22;33950;48.154;16.316;2023-03-21T14:33:34;17.90;68.50
48162;DHT22;33950;48.154;16.316;2023-03-21T14:36:23;17.80;68.80
48162;DHT22;33950;48.154;16.316;2023-03-21T14:39:14;17.70;69.00
48162;DHT22;33950;48.154;16.316;2023-03-21T14:42:04;17.70;69.40
48162;DHT22;33950;48.154;16.316;2023-03-21T14:44:51;17.60;69.40
48162;DHT22;33950;48.154;16.316;2023-03-21T14:47:37;17.70;69.50
48162;DHT22;33950;48.154;16.316;2023-03-21T14:50:29;17.60;69.30
48162;DHT22;33950;48.154;16.316;2023-03-21T14:53:19;17.50;69.80
48162;DHT22;33950;48.154;16.316;2023-03-21T14:56:09;17.50;70.20
48162;DHT22;33950;48.154;16.316;2023-03-21T14:58:57;17.50;70.00
48162;DHT22;33950;48.154;16.316;2023-03-21T15:01:45;17.30;70.00
48162;DHT22;33950;48.154;16.316;2023-03-21T15:04:33;17.20;70.30
48162;DHT22;33950;48.154;16.316;2023-03-21T15:07:27;17.30;70.50
48162;DHT22;33950;48.154;16.316;2023-03-21T15:10:15;17.30;70.40
48162;DHT22;33950;48.154;16.316;2023-03-21T15:13:13;17.20;70.30
48162;DHT22;33950;48.154;16.316;2023-03-21T15:16:02;17.20;70.20
48162;DHT22;33950;48.154;16.316;2023-03-21T15:18:49;17.20;70.30
48162;DHT22;33950;48.154;16.316;2023-03-21T15:21:38;17.20;70.40
48162;DHT22;33950;48.154;16.316;2023-03-21T15:24:27;17.20;70.30
48162;DHT22;33950;48.154;16.316;2023-03-21T15:27:15;17.20;70.90
48162;DHT22;33950;48.154;16.316;2023-03-21T15:30:03;17.20;70.20
48162;DHT22;33950;48.154;16.316;2023-03-21T15:32:51;17.20;70.10
48162;DHT22;33950;48.154;16.316;2023-03-21T15:35:39;17.20;70.20
48162;DHT22;33950;48.154;16.316;2023-03-21T15:38:29;17.20;70.10
48162;DHT22;33950;48.154;16.316;2023-03-21T15:41:26;17.20;69.70
48162;DHT22;33950;48.154;16.316;2023-03-21T15:44:13;17.20;69.80
48162;DHT22;33950;48.154;16.316;2023-03-21T15:46:59;17.10;70.10
48162;DHT22;33950;48.154;16.316;2023-03-21T15:49:52;17.20;70.90
48162;DHT22;33950;48.154;16.316;2023-03-21T15:52:40;17.60;70.10
48162;DHT22;33950;48.154;16.316;2023-03-21T15:55:28;17.90;69.60
48162;DHT22;33950;48.154;16.316;2023-03-21T15:58:17;17.90;69.30
48162;DHT22;33950;48.154;16.316;2023-03-21T16:01:07;17.80;69.70
48162;DHT22;33950;48.154;16.316;2023-03-21T16:03:57;17.70;68.90
48162;DHT22;33950;48.154;16.316;2023-03-21T16:06:55;17.70;69.40
48162;DHT22;33950;48.154;16.316;2023-03-21T16:09:44;17.70;68.90
48162;DHT22;33950;48.154;16.316;2023-03-21T16:12:31;17.70;68.80
48162;DHT22;33950;48.154;16.316;2023-03-21T16:15:19;17.60;68.90
48162;DHT22;33950;48.154;16.316;2023-03-21T16:18:06;17.80;69.00
48162;DHT22;33950;48.154;16.316;2023-03-21T16:20:52;17.90;68.80
48162;DHT22;33950;48.154;16.316;2023-03-21T16:23:40;18.00;68.90
48162;DHT22;33950;48.154;16.316;2023-03-21T16:26:28;18.20;68.60
48162;DHT22;33950;48.154;16.316;2023-03-21T16:29:15;18.30;68.20
48162;DHT22;33950;48.154;16.316;2023-03-21T16:32:02;18.30;68.00
48162;DHT22;33950;48.154;16.316;2023-03-21T16:34:51;18.40;67.90
48162;DHT22;33950;48.154;16.316;2023-03-21T16:37:38;18.50;67.70
48162;DHT22;33950;48.154;16.316;2023-03-21T16:40:29;18.40;67.50
48162;DHT22;33950;48.154;16.316;2023-03-21T16:43:16;18.30;67.20
48162;DHT22;33950;48.154;16.316;2023-03-21T16:46:02;18.20;67.40
48162;DHT22;33950;48.154;16.316;2023-03-21T16:48:50;18.10;67.30
48162;DHT22;33950;48.154;16.316;2023-03-21T16:51:36;17.90;67.60
48162;DHT22;33950;48.154;16.316;2023-03-21T16:54:22;17.80;67.70
48162;DHT22;33950;48.154;16.316;2023-03-21T16:57:21;17.60;68.00
48162;DHT22;33950;48.154;16.316;2023-03-21T17:00:10;17.50;68.40
48162;DHT22;33950;48.154;16.316;2023-03-21T17:03:00;17.40;68.10
48162;DHT22;33950;48.154;16.316;2023-03-21T17:05:46;17.40;68.20
48162;DHT22;33950;48.154;16.316;2023-03-21T17:08:33;17.50;68.60
48162;DHT22;33950;48.154;16.316;2023-03-21T17:11:21;17.40;68.30
48162;DHT22;33950;48.154;16.316;2023-03-21T17:14:10;17.40;68.70
48162;DHT22;33950;48.154;16.316;2023-03-21T17:16:56;17.30;68.50
48162;DHT22;33950;48.154;16.316;2023-03-21T17:19:42;17.30;68.90
48162;DHT22;33950;48.154;16.316;2023-03-21T17:22:28;17.20;68.90
48162;DHT22;33950;48.154;16.316;2023-03-21T17:25:15;17.20;69.50
48162;DHT22;33950;48.154;16.316;2023-03-21T17:28:02;17.20;69.00
48162;DHT22;33950;48.154;16.316;2023-03-21T17:30:49;17.20;69.00
48162;DHT22;33950;48.154;16.316;2023-03-21T17:33:35;17.20;68.90
48162;DHT22;33950;48.154;16.316;2023-03-21T17:36:27;17.20;69.10
48162;DHT22;33950;48.154;16.316;2023-03-21T17:39:17;17.30;69.10
48162;DHT22;33950;48.154;16.316;2023-03-21T17:42:07;17.20;69.00